sensor_id;sensor_type;location;lat;lon;timestamp;pressure;altitude;pressure_sealevel;temperature;humidity
79461;BME280;68929;42.666;23.324;2023-05-07T00:00:52;94758.88;;;15.71;56.78
79461;BME280;68929;42.666;23.324;2023-05-07T00:03:18;94737.91;;;15.30;57.61
79461;BME280;68929;42.666;23.324;2023-05-07T00:05:44;94747.13;;;15.39;57.75
79461;BME280;68929;42.666;23.324;2023-05-07T00:08:09;94730.22;;;15.45;57.28
79461;BME280;68929;42.666;23.324;2023-05-07T00:10:35;94745.38;;;15.44;57.37
79461;BME280;68929;42.666;23.324;2023-05-07T00:13:01;94759.41;;;15.40;57.55
79461;BME280;68929;42.666;23.324;2023-05-07T00:15:26;94769.88;;;15.30;57.21
79461;BME280;68929;42.666;23.324;2023-05-07T00:17:52;94762.44;;;15.32;57.58
79461;BME280;68929;42.666;23.324;2023-05-07T00:20:17;94743.09;;;15.36;57.53
79461;BME280;68929;42.666;23.324;2023-05-07T00:22:43;94753.41;;;15.61;56.80
79461;BME280;68929;42.666;23.324;2023-05-07T00:25:08;94739.59;;;15.47;56.68
79461;BME280;68929;42.666;23.324;2023-05-07T00:27:35;94739.44;;;15.54;56.85
79461;BME280;68929;42.666;23.324;2023-05-07T00:30:00;94736.84;;;15.59;56.76
79461;BME280;68929;42.666;23.324;2023-05-07T00:32:26;94744.22;;;15.52;56.70
79461;BME280;68929;42.666;23.324;2023-05-07T00:34:51;94722.34;;;15.21;57.35
79461;BME280;68929;42.666;23.324;2023-05-07T00:37:17;94735.41;;;15.23;57.50
79461;BME280;68929;42.666;23.324;2023-05-07T00:39:42;94736.50;;;15.10;57.86
79461;BME280;68929;42.666;23.324;2023-05-07T00:42:07;94729.75;;;14.63;58.93
79461;BME280;68929;42.666;23.324;2023-05-07T00:44:33;94755.91;;;14.94;58.80
79461;BME280;68929;42.666;23.324;2023-05-07T00:47:01;94730.16;;;15.11;57.77
79461;BME280;68929;42.666;23.324;2023-05-07T00:49:40;94747.44;;;15.26;57.53
79461;BME280;68929;42.666;23.324;2023-05-07T00:52:07;94759.47;;;15.28;57.80
79461;BME280;68929;42.666;23.324;2023-05-07T00:54:33;94742.25;;;15.19;57.84
79461;BME280;68929;42.666;23.324;2023-05-07T00:56:59;94754.97;;;15.29;57.75
79461;BME280;68929;42.666;23.324;2023-05-07T00:59:25;94752.38;;;15.34;57.40
79461;BME280;68929;42.666;23.324;2023-05-07T01:01:51;94764.09;;;15.33;57.49
79461;BME280;68929;42.666;23.324;2023-05-07T01:04:17;94737.91;;;15.30;57.05
79461;BME280;68929;42.666;23.324;2023-05-07T01:06:44;94753.53;;;15.09;57.82
79461;BME280;68929;42.666;23.324;2023-05-07T01:09:10;94729.47;;;15.04;57.76
79461;BME280;68929;42.666;23.324;2023-05-07T01:11:36;94756.56;;;15.30;57.34
79461;BME280;68929;42.666;23.324;2023-05-07T01:14:01;94758.00;;;15.49;56.94
79461;BME280;68929;42.666;23.324;2023-05-07T01:16:27;94766.34;;;15.41;56.85
79461;BME280;68929;42.666;23.324;2023-05-07T01:18:53;94749.84;;;15.27;56.75
79461;BME280;68929;42.666;23.324;2023-05-07T01:21:24;94737.66;;;15.14;56.80
79461;BME280;68929;42.666;23.324;2023-05-07T01:23:50;94747.72;;;15.12;57.56
79461;BME280;68929;42.666;23.324;2023-05-07T01:26:15;94751.63;;;15.21;57.25
79461;BME280;68929;42.666;23.324;2023-05-07T01:28:41;94736.78;;;15.26;57.00
79461;BME280;68929;42.666;23.324;2023-05-07T01:31:08;94764.78;;;15.56;56.61
79461;BME280;68929;42.666;23.324;2023-05-07T01:33:35;94747.66;;;15.52;55.82
79461;BME280;68929;42.666;23.324;2023-05-07T01:36:04;94738.78;;;15.47;56.02
79461;BME280;68929;42.666;23.324;2023-05-07T01:38:32;94755.09;;;15.50;56.10
79461;BME280;68929;42.666;23.324;2023-05-07T01:40:57;94737.50;;;15.49;55.47
79461;BME280;68929;42.666;23.324;2023-05-07T01:43:23;94731.78;;;15.29;56.32
79461;BME280;68929;42.666;23.324;2023-05-07T01:45:49;94731.16;;;15.39;55.59
79461;BME280;68929;42.666;23.324;2023-05-07T01:48:15;94744.28;;;15.57;55.58
79461;BME280;68929;42.666;23.324;2023-05-07T01:50:41;94717.88;;;15.10;56.77
79461;BME280;68929;42.666;23.324;2023-05-07T01:53:07;94719.78;;;14.98;57.10
79461;BME280;68929;42.666;23.324;2023-05-07T01:55:33;94722.72;;;15.13;56.39
79461;BME280;68929;42.666;23.324;2023-05-07T01:57:58;94714.22;;;14.72;57.21
79461;BME280;68929;42.666;23.324;2023-05-07T02:00:24;94726.78;;;15.16;57.07
79461;BME280;68929;42.666;23.324;2023-05-07T02:02:49;94722.44;;;15.27;56.69
79461;BME280;68929;42.666;23.324;2023-05-07T02:05:15;94716.34;;;15.43;56.13
79461;BME280;68929;42.666;23.324;2023-05-07T02:07:40;94721.75;;;15.48;55.90
79461;BME280;68929;42.666;23.324;2023-05-07T02:10:06;94700.72;;;15.35;56.43
79461;BME280;68929;42.666;23.324;2023-05-07T02:12:31;94689.50;;;15.33;56.33
79461;BME280;68929;42.666;23.324;2023-05-07T02:14:57;94693.97;;;14.99;56.86
79461;BME280;68929;42.666;23.324;2023-05-07T02:17:22;94690.59;;;15.03;57.41
79461;BME280;68929;42.666;23.324;2023-05-07T02:19:47;94701.28;;;15.20;56.78
79461;BME280;68929;42.666;23.324;2023-05-07T02:22:13;94685.84;;;15.05;57.12
79461;BME280;68929;42.666;23.324;2023-05-07T02:24:38;94684.00;;;15.06;57.25
79461;BME280;68929;42.666;23.324;2023-05-07T02:27:03;94692.22;;;15.04;57.49
79461;BME280;68929;42.666;23.324;2023-05-07T02:29:29;94689.16;;;15.12;57.11
79461;BME280;68929;42.666;23.324;2023-05-07T02:31:55;94704.00;;;15.25;57.06
79461;BME280;68929;42.666;23.324;2023-05-07T02:34:20;94689.09;;;15.07;57.12
79461;BME280;68929;42.666;23.324;2023-05-07T02:36:46;94697.53;;;15.04;57.36
79461;BME280;68929;42.666;23.324;2023-05-07T02:39:12;94694.00;;;15.15;56.67
79461;BME280;68929;42.666;23.324;2023-05-07T02:41:38;94690.03;;;15.01;57.43
79461;BME280;68929;42.666;23.324;2023-05-07T02:44:03;94689.59;;;14.65;58.05
79461;BME280;68929;42.666;23.324;2023-05-07T02:46:29;94687.56;;;14.55;58.57
79461;BME280;68929;42.666;23.324;2023-05-07T02:48:54;94702.78;;;14.99;57.65
79461;BME280;68929;42.666;23.324;2023-05-07T02:51:21;94715.78;;;15.12;57.57
79461;BME280;68929;42.666;23.324;2023-05-07T02:53:47;94692.72;;;15.01;56.97
79461;BME280;68929;42.666;23.324;2023-05-07T02:56:12;94696.09;;;15.13;57.14
79461;BME280;68929;42.666;23.324;2023-05-07T02:58:37;94710.00;;;15.32;56.60
79461;BME280;68929;42.666;23.324;2023-05-07T03:01:07;94725.84;;;15.39;56.81
79461;BME280;68929;42.666;23.324;2023-05-07T03:03:33;94718.41;;;15.41;56.52
79461;BME280;68929;42.666;23.324;2023-05-07T03:05:58;94720.69;;;15.49;56.16
79461;BME280;68929;42.666;23.324;2023-05-07T03:08:26;94724.91;;;15.16;57.15
79461;BME280;68929;42.666;23.324;2023-05-07T03:10:52;94707.03;;;15.00;55.89
79461;BME280;68929;42.666;23.324;2023-05-07T03:13:17;94717.41;;;14.85;57.43
79461;BME280;68929;42.666;23.324;2023-05-07T03:15:43;94718.94;;;14.81;57.66
79461;BME280;68929;42.666;23.324;2023-05-07T03:18:08;94701.53;;;14.90;57.45
79461;BME280;68929;42.666;23.324;2023-05-07T03:20:33;94723.88;;;15.17;56.93
79461;BME280;68929;42.666;23.324;2023-05-07T03:22:59;94729.19;;;15.17;56.45
79461;BME280;68929;42.666;23.324;2023-05-07T03:25:25;94734.47;;;15.01;57.18
79461;BME280;68929;42.666;23.324;2023-05-07T03:27:50;94737.25;;;15.06;57.59
79461;BME280;68929;42.666;23.324;2023-05-07T03:30:16;94731.00;;;15.00;57.39
79461;BME280;68929;42.666;23.324;2023-05-07T03:32:42;94723.19;;;15.10;57.09
79461;BME280;68929;42.666;23.324;2023-05-07T03:35:08;94720.06;;;15.13;56.48
79461;BME280;68929;42.666;23.324;2023-05-07T03:37:34;94726.91;;;15.09;56.66
79461;BME280;68929;42.666;23.324;2023-05-07T03:39:59;94719.59;;;14.88;56.77
79461;BME280;68929;42.666;23.324;2023-05-07T03:42:25;94757.19;;;14.92;57.29
79461;BME280;68929;42.666;23.324;2023-05-07T03:44:50;94734.63;;;14.66;58.15
79461;BME280;68929;42.666;23.324;2023-05-07T03:47:15;94744.59;;;14.87;57.56
79461;BME280;68929;42.666;23.324;2023-05-07T03:49:41;94748.97;;;14.65;58.04
79461;BME280;68929;42.666;23.324;2023-05-07T03:52:06;94744.31;;;14.72;58.06
79461;BME280;68929;42.666;23.324;2023-05-07T03:54:32;94766.00;;;14.92;57.49
79461;BME280;68929;42.666;23.324;2023-05-07T03:56:57;94751.78;;;14.47;57.82
79461;BME280;68929;42.666;23.324;2023-05-07T03:59:22;94747.06;;;14.26;59.24
79461;BME280;68929;42.666;23.324;2023-05-07T04:01:48;94760.59;;;14.36;58.62
79461;BME280;68929;42.666;23.324;2023-05-07T04:04:16;94771.63;;;14.68;58.38
79461;BME280;68929;42.666;23.324;2023-05-07T04:06:41;94747.81;;;14.61;58.03
79461;BME280;68929;42.666;23.324;2023-05-07T04:09:07;94763.59;;;14.79;57.64
79461;BME280;68929;42.666;23.324;2023-05-07T04:11:33;94766.38;;;14.84;56.99
79461;BME280;68929;42.666;23.324;2023-05-07T04:13:58;94772.13;;;14.53;58.00
79461;BME280;68929;42.666;23.324;2023-05-07T04:16:23;94773.50;;;14.56;58.08
79461;BME280;68929;42.666;23.324;2023-05-07T04:18:49;94789.44;;;14.79;57.44
79461;BME280;68929;42.666;23.324;2023-05-07T04:21:19;94803.06;;;14.82;58.26
79461;BME280;68929;42.666;23.324;2023-05-07T04:23:48;94803.81;;;14.94;57.28
79461;BME280;68929;42.666;23.324;2023-05-07T04:26:14;94800.78;;;14.74;57.50
79461;BME280;68929;42.666;23.324;2023-05-07T04:28:40;94792.78;;;14.74;58.15
79461;BME280;68929;42.666;23.324;2023-05-07T04:31:06;94811.50;;;14.79;57.87
79461;BME280;68929;42.666;23.324;2023-05-07T04:33:31;94803.22;;;15.04;57.54
79461;BME280;68929;42.666;23.324;2023-05-07T04:35:57;94801.47;;;15.09;57.38
79461;BME280;68929;42.666;23.324;2023-05-07T04:38:23;94797.66;;;15.34;56.59
79461;BME280;68929;42.666;23.324;2023-05-07T04:40:51;94803.19;;;15.44;56.16
79461;BME280;68929;42.666;23.324;2023-05-07T04:43:16;94811.81;;;15.62;55.75
79461;BME280;68929;42.666;23.324;2023-05-07T04:45:42;94818.00;;;15.40;56.46
79461;BME280;68929;42.666;23.324;2023-05-07T04:48:10;94809.44;;;15.38;56.63
79461;BME280;68929;42.666;23.324;2023-05-07T04:50:36;94797.38;;;15.47;55.93
79461;BME280;68929;42.666;23.324;2023-05-07T04:53:01;94810.75;;;15.63;55.71
79461;BME280;68929;42.666;23.324;2023-05-07T04:55:28;94813.09;;;15.60;56.07
79461;BME280;68929;42.666;23.324;2023-05-07T04:57:53;94781.19;;;15.37;55.73
79461;BME280;68929;42.666;23.324;2023-05-07T05:00:19;94801.84;;;15.58;56.10
79461;BME280;68929;42.666;23.324;2023-05-07T05:02:45;94799.03;;;15.48;55.78
79461;BME280;68929;42.666;23.324;2023-05-07T05:05:10;94809.47;;;15.66;55.66
79461;BME280;68929;42.666;23.324;2023-05-07T05:07:36;94812.75;;;15.73;55.35
79461;BME280;68929;42.666;23.324;2023-05-07T05:10:02;94814.78;;;15.66;55.75
79461;BME280;68929;42.666;23.324;2023-05-07T05:12:29;94812.28;;;15.76;55.84
79461;BME280;68929;42.666;23.324;2023-05-07T05:14:54;94792.50;;;15.72;55.83
79461;BME280;68929;42.666;23.324;2023-05-07T05:17:20;94797.84;;;15.44;56.10
79461;BME280;68929;42.666;23.324;2023-05-07T05:19:45;94811.78;;;15.46;57.06
79461;BME280;68929;42.666;23.324;2023-05-07T05:22:11;94794.81;;;15.52;56.77
79461;BME280;68929;42.666;23.324;2023-05-07T05:24:36;94804.38;;;15.81;55.62
79461;BME280;68929;42.666;23.324;2023-05-07T05:27:01;94815.66;;;16.21;55.36
79461;BME280;68929;42.666;23.324;2023-05-07T05:29:27;94807.75;;;16.26;55.12
79461;BME280;68929;42.666;23.324;2023-05-07T05:31:53;94804.03;;;16.27;54.83
79461;BME280;68929;42.666;23.324;2023-05-07T05:34:18;94804.28;;;16.09;55.23
79461;BME280;68929;42.666;23.324;2023-05-07T05:36:47;94813.56;;;16.23;55.10
79461;BME280;68929;42.666;23.324;2023-05-07T05:39:12;94805.47;;;16.51;54.27
79461;BME280;68929;42.666;23.324;2023-05-07T05:41:38;94808.59;;;16.65;54.10
79461;BME280;68929;42.666;23.324;2023-05-07T05:44:03;94813.06;;;16.59;54.41
79461;BME280;68929;42.666;23.324;2023-05-07T05:46:29;94795.69;;;16.40;54.13
79461;BME280;68929;42.666;23.324;2023-05-07T05:48:55;94826.66;;;16.41;54.77
79461;BME280;68929;42.666;23.324;2023-05-07T05:51:21;94817.97;;;16.67;54.18
79461;BME280;68929;42.666;23.324;2023-05-07T05:53:46;94791.28;;;16.67;54.13
79461;BME280;68929;42.666;23.324;2023-05-07T05:56:11;94810.81;;;16.90;53.45
79461;BME280;68929;42.666;23.324;2023-05-07T05:58:37;94815.81;;;17.08;53.28
79461;BME280;68929;42.666;23.324;2023-05-07T06:01:02;94794.28;;;17.14;52.45
79461;BME280;68929;42.666;23.324;2023-05-07T06:03:28;94801.13;;;17.32;51.80
79461;BME280;68929;42.666;23.324;2023-05-07T06:05:53;94820.66;;;17.54;51.28
79461;BME280;68929;42.666;23.324;2023-05-07T06:08:19;94820.00;;;17.47;51.06
79461;BME280;68929;42.666;23.324;2023-05-07T06:10:44;94833.03;;;17.65;50.99
79461;BME280;68929;42.666;23.324;2023-05-07T06:13:10;94808.50;;;17.73;51.09
79461;BME280;68929;42.666;23.324;2023-05-07T06:15:35;94807.59;;;17.89;50.55
79461;BME280;68929;42.666;23.324;2023-05-07T06:18:01;94800.19;;;17.43;51.86
79461;BME280;68929;42.666;23.324;2023-05-07T06:20:26;94799.09;;;17.44;51.66
79461;BME280;68929;42.666;23.324;2023-05-07T06:22:52;94815.16;;;17.97;50.80
79461;BME280;68929;42.666;23.324;2023-05-07T06:25:17;94797.06;;;18.09;49.91
79461;BME280;68929;42.666;23.324;2023-05-07T06:27:42;94806.44;;;18.12;49.05
79461;BME280;68929;42.666;23.324;2023-05-07T06:30:08;94799.09;;;17.97;49.91
79461;BME280;68929;42.666;23.324;2023-05-07T06:32:34;94807.50;;;18.11;50.31
79461;BME280;68929;42.666;23.324;2023-05-07T06:34:59;94796.22;;;18.04;49.15
79461;BME280;68929;42.666;23.324;2023-05-07T06:37:25;94799.25;;;18.17;49.88
79461;BME280;68929;42.666;23.324;2023-05-07T06:39:50;94785.31;;;18.15;49.58
79461;BME280;68929;42.666;23.324;2023-05-07T06:42:16;94786.50;;;18.29;48.90
79461;BME280;68929;42.666;23.324;2023-05-07T06:44:41;94804.88;;;18.48;49.03
79461;BME280;68929;42.666;23.324;2023-05-07T06:47:07;94784.75;;;18.92;48.40
79461;BME280;68929;42.666;23.324;2023-05-07T06:49:32;94769.81;;;19.11;47.69
79461;BME280;68929;42.666;23.324;2023-05-07T06:51:58;94773.19;;;18.86;47.62
79461;BME280;68929;42.666;23.324;2023-05-07T06:54:23;94768.50;;;19.19;46.91
79461;BME280;68929;42.666;23.324;2023-05-07T06:56:49;94778.88;;;19.05;47.84
79461;BME280;68929;42.666;23.324;2023-05-07T06:59:15;94788.31;;;19.17;46.90
79461;BME280;68929;42.666;23.324;2023-05-07T07:01:41;94778.34;;;18.98;48.08
79461;BME280;68929;42.666;23.324;2023-05-07T07:04:07;94782.16;;;19.22;47.23
79461;BME280;68929;42.666;23.324;2023-05-07T07:06:32;94780.13;;;19.39;46.11
79461;BME280;68929;42.666;23.324;2023-05-07T07:08:59;94781.78;;;19.70;46.40
79461;BME280;68929;42.666;23.324;2023-05-07T07:11:24;94780.19;;;20.20;45.44
79461;BME280;68929;42.666;23.324;2023-05-07T07:13:50;94755.47;;;20.03;45.79
79461;BME280;68929;42.666;23.324;2023-05-07T07:16:16;94762.47;;;19.78;45.65
79461;BME280;68929;42.666;23.324;2023-05-07T07:18:41;94771.59;;;19.87;46.32
79461;BME280;68929;42.666;23.324;2023-05-07T07:21:06;94763.56;;;19.77;45.75
79461;BME280;68929;42.666;23.324;2023-05-07T07:23:32;94756.47;;;19.21;46.77
79461;BME280;68929;42.666;23.324;2023-05-07T07:25:58;94763.16;;;19.19;46.96
79461;BME280;68929;42.666;23.324;2023-05-07T07:28:23;94749.53;;;19.40;46.74
79461;BME280;68929;42.666;23.324;2023-05-07T07:30:48;94765.16;;;19.88;45.33
79461;BME280;68929;42.666;23.324;2023-05-07T07:33:14;94752.78;;;20.03;45.22
79461;BME280;68929;42.666;23.324;2023-05-07T07:35:40;94743.72;;;19.83;44.90
79461;BME280;68929;42.666;23.324;2023-05-07T07:38:05;94760.59;;;20.24;44.79
79461;BME280;68929;42.666;23.324;2023-05-07T07:40:31;94779.09;;;20.46;42.72
79461;BME280;68929;42.666;23.324;2023-05-07T07:42:56;94766.50;;;19.81;44.03
79461;BME280;68929;42.666;23.324;2023-05-07T07:45:22;94757.63;;;19.65;45.46
79461;BME280;68929;42.666;23.324;2023-05-07T07:47:47;94772.69;;;19.91;44.08
79461;BME280;68929;42.666;23.324;2023-05-07T07:50:13;94780.19;;;20.00;44.86
79461;BME280;68929;42.666;23.324;2023-05-07T07:52:38;94778.06;;;20.27;43.54
79461;BME280;68929;42.666;23.324;2023-05-07T07:55:04;94786.63;;;20.39;43.36
79461;BME280;68929;42.666;23.324;2023-05-07T07:57:30;94794.13;;;19.81;44.32
79461;BME280;68929;42.666;23.324;2023-05-07T07:59:55;94790.38;;;20.08;44.13
79461;BME280;68929;42.666;23.324;2023-05-07T08:02:21;94776.41;;;20.16;44.48
79461;BME280;68929;42.666;23.324;2023-05-07T08:04:46;94779.94;;;20.26;44.02
79461;BME280;68929;42.666;23.324;2023-05-07T08:07:12;94775.84;;;20.64;43.07
79461;BME280;68929;42.666;23.324;2023-05-07T08:09:38;94766.66;;;20.85;43.33
79461;BME280;68929;42.666;23.324;2023-05-07T08:12:04;94776.94;;;20.58;43.93
79461;BME280;68929;42.666;23.324;2023-05-07T08:14:30;94757.59;;;20.56;42.67
79461;BME280;68929;42.666;23.324;2023-05-07T08:16:55;94762.91;;;20.81;43.65
79461;BME280;68929;42.666;23.324;2023-05-07T08:19:21;94775.47;;;21.06;43.53
79461;BME280;68929;42.666;23.324;2023-05-07T08:21:47;94773.78;;;21.20;42.78
79461;BME280;68929;42.666;23.324;2023-05-07T08:24:13;94763.56;;;21.71;40.80
79461;BME280;68929;42.666;23.324;2023-05-07T08:26:39;94777.28;;;21.20;42.11
79461;BME280;68929;42.666;23.324;2023-05-07T08:29:05;94749.88;;;21.18;41.99
79461;BME280;68929;42.666;23.324;2023-05-07T08:31:30;94756.69;;;21.49;41.85
79461;BME280;68929;42.666;23.324;2023-05-07T08:33:57;94755.47;;;21.76;39.90
79461;BME280;68929;42.666;23.324;2023-05-07T08:36:22;94754.88;;;21.35;39.99
79461;BME280;68929;42.666;23.324;2023-05-07T08:38:48;94758.53;;;21.10;40.48
79461;BME280;68929;42.666;23.324;2023-05-07T08:41:15;94762.25;;;21.19;41.17
79461;BME280;68929;42.666;23.324;2023-05-07T08:43:41;94765.47;;;21.65;41.08
79461;BME280;68929;42.666;23.324;2023-05-07T08:46:08;94733.47;;;22.02;40.27
79461;BME280;68929;42.666;23.324;2023-05-07T08:48:35;94757.38;;;22.38;39.49
79461;BME280;68929;42.666;23.324;2023-05-07T08:51:01;94750.41;;;22.03;37.24
79461;BME280;68929;42.666;23.324;2023-05-07T08:53:26;94725.28;;;21.84;38.02
79461;BME280;68929;42.666;23.324;2023-05-07T08:55:52;94761.13;;;22.13;38.49
79461;BME280;68929;42.666;23.324;2023-05-07T08:58:18;94742.72;;;22.20;39.60
79461;BME280;68929;42.666;23.324;2023-05-07T09:00:43;94734.41;;;22.16;39.25
79461;BME280;68929;42.666;23.324;2023-05-07T09:03:09;94748.22;;;22.67;37.99
79461;BME280;68929;42.666;23.324;2023-05-07T09:05:37;94729.00;;;22.97;37.71
79461;BME280;68929;42.666;23.324;2023-05-07T09:08:04;94741.19;;;23.56;37.19
79461;BME280;68929;42.666;23.324;2023-05-07T09:10:33;94738.72;;;23.78;36.53
79461;BME280;68929;42.666;23.324;2023-05-07T09:12:58;94735.59;;;23.52;34.98
79461;BME280;68929;42.666;23.324;2023-05-07T09:15:24;94724.13;;;23.42;35.15
79461;BME280;68929;42.666;23.324;2023-05-07T09:17:50;94722.59;;;23.36;34.97
79461;BME280;68929;42.666;23.324;2023-05-07T09:20:16;94734.63;;;22.77;35.20
79461;BME280;68929;42.666;23.324;2023-05-07T09:22:41;94734.03;;;23.04;35.49
79461;BME280;68929;42.666;23.324;2023-05-07T09:25:08;94721.19;;;23.20;35.00
79461;BME280;68929;42.666;23.324;2023-05-07T09:27:34;94733.22;;;23.03;34.53
79461;BME280;68929;42.666;23.324;2023-05-07T09:30:03;94724.03;;;22.57;35.86
79461;BME280;68929;42.666;23.324;2023-05-07T09:32:29;94709.06;;;22.75;36.29
79461;BME280;68929;42.666;23.324;2023-05-07T09:34:56;94721.72;;;23.59;36.01
79461;BME280;68929;42.666;23.324;2023-05-07T09:37:21;94700.84;;;23.64;32.57
79461;BME280;68929;42.666;23.324;2023-05-07T09:39:48;94703.00;;;23.49;34.56
79461;BME280;68929;42.666;23.324;2023-05-07T09:42:14;94710.19;;;23.72;31.24
79461;BME280;68929;42.666;23.324;2023-05-07T09:44:40;94696.34;;;23.41;33.17
79461;BME280;68929;42.666;23.324;2023-05-07T09:47:07;94718.53;;;23.57;32.75
79461;BME280;68929;42.666;23.324;2023-05-07T09:49:39;94704.91;;;23.25;32.54
79461;BME280;68929;42.666;23.324;2023-05-07T09:52:07;94709.22;;;23.26;32.86
79461;BME280;68929;42.666;23.324;2023-05-07T09:54:34;94703.19;;;22.91;34.93
79461;BME280;68929;42.666;23.324;2023-05-07T09:57:04;94697.81;;;22.91;33.76
79461;BME280;68929;42.666;23.324;2023-05-07T09:59:32;94698.34;;;23.31;35.96
79461;BME280;68929;42.666;23.324;2023-05-07T10:01:59;94708.25;;;24.10;33.80
79461;BME280;68929;42.666;23.324;2023-05-07T10:04:25;94690.94;;;24.56;32.31
79461;BME280;68929;42.666;23.324;2023-05-07T10:06:51;94696.53;;;24.60;30.70
79461;BME280;68929;42.666;23.324;2023-05-07T10:09:21;94680.97;;;24.84;30.98
79461;BME280;68929;42.666;23.324;2023-05-07T10:11:49;94689.63;;;25.71;29.55
79461;BME280;68929;42.666;23.324;2023-05-07T10:14:15;94686.78;;;26.43;28.67
79461;BME280;68929;42.666;23.324;2023-05-07T10:16:40;94688.91;;;26.24;29.11
79461;BME280;68929;42.666;23.324;2023-05-07T10:19:09;94683.16;;;26.56;28.92
79461;BME280;68929;42.666;23.324;2023-05-07T10:21:37;94690.38;;;26.91;28.26
79461;BME280;68929;42.666;23.324;2023-05-07T10:24:05;94687.13;;;26.89;27.70
79461;BME280;68929;42.666;23.324;2023-05-07T10:26:40;94660.78;;;27.37;27.10
79461;BME280;68929;42.666;23.324;2023-05-07T10:29:42;94662.16;;;28.92;25.13
79461;BME280;68929;42.666;23.324;2023-05-07T10:35:02;94671.16;;;28.84;26.21
79461;BME280;68929;42.666;23.324;2023-05-07T10:37:30;94660.00;;;29.56;25.72
79461;BME280;68929;42.666;23.324;2023-05-07T10:39:55;94648.47;;;30.13;23.25
79461;BME280;68929;42.666;23.324;2023-05-07T10:42:22;94650.97;;;28.85;23.96
79461;BME280;68929;42.666;23.324;2023-05-07T10:44:48;94652.19;;;27.69;25.65
79461;BME280;68929;42.666;23.324;2023-05-07T10:47:15;94661.94;;;26.49;28.25
79461;BME280;68929;42.666;23.324;2023-05-07T10:52:18;94658.53;;;24.84;29.64
79461;BME280;68929;42.666;23.324;2023-05-07T10:54:43;94644.25;;;24.10;31.41
79461;BME280;68929;42.666;23.324;2023-05-07T10:59:57;94650.44;;;26.52;29.34
79461;BME280;68929;42.666;23.324;2023-05-07T11:02:22;94630.13;;;27.45;26.23
79461;BME280;68929;42.666;23.324;2023-05-07T11:05:18;94661.69;;;29.19;23.98
79461;BME280;68929;42.666;23.324;2023-05-07T11:07:54;94654.53;;;29.36;23.83
79461;BME280;68929;42.666;23.324;2023-05-07T11:10:20;94655.16;;;29.62;23.43
79461;BME280;68929;42.666;23.324;2023-05-07T11:15:14;94650.28;;;31.22;22.17
79461;BME280;68929;42.666;23.324;2023-05-07T11:17:54;94644.44;;;31.60;20.80
79461;BME280;68929;42.666;23.324;2023-05-07T11:20:19;94639.28;;;32.54;20.21
79461;BME280;68929;42.666;23.324;2023-05-07T11:22:46;94621.81;;;31.75;20.94
79461;BME280;68929;42.666;23.324;2023-05-07T11:25:17;94638.81;;;32.08;21.45
79461;BME280;68929;42.666;23.324;2023-05-07T11:27:43;94616.97;;;31.57;21.14
79461;BME280;68929;42.666;23.324;2023-05-07T11:30:09;94637.97;;;31.04;22.18
79461;BME280;68929;42.666;23.324;2023-05-07T11:32:34;94639.25;;;30.95;20.43
79461;BME280;68929;42.666;23.324;2023-05-07T11:35:00;94627.38;;;30.66;20.89
79461;BME280;68929;42.666;23.324;2023-05-07T11:37:27;94623.16;;;30.12;21.60
79461;BME280;68929;42.666;23.324;2023-05-07T11:40:05;94628.16;;;30.43;21.58
79461;BME280;68929;42.666;23.324;2023-05-07T11:42:36;94638.84;;;30.60;22.47
79461;BME280;68929;42.666;23.324;2023-05-07T11:45:07;94627.13;;;30.35;21.43
79461;BME280;68929;42.666;23.324;2023-05-07T11:47:33;94615.50;;;28.73;24.38
79461;BME280;68929;42.666;23.324;2023-05-07T11:50:04;94622.94;;;27.75;24.64
79461;BME280;68929;42.666;23.324;2023-05-07T11:52:30;94619.38;;;28.72;24.42
79461;BME280;68929;42.666;23.324;2023-05-07T11:54:57;94614.88;;;30.53;21.60
79461;BME280;68929;42.666;23.324;2023-05-07T11:57:23;94616.66;;;32.57;20.85
79461;BME280;68929;42.666;23.324;2023-05-07T11:59:56;94622.13;;;33.69;18.60
79461;BME280;68929;42.666;23.324;2023-05-07T12:02:21;94617.69;;;34.41;18.41
79461;BME280;68929;42.666;23.324;2023-05-07T12:04:47;94612.47;;;34.78;18.09
79461;BME280;68929;42.666;23.324;2023-05-07T12:07:13;94606.19;;;34.78;18.11
79461;BME280;68929;42.666;23.324;2023-05-07T12:09:40;94598.75;;;36.09;17.12
79461;BME280;68929;42.666;23.324;2023-05-07T12:12:05;94601.03;;;36.40;16.75
79461;BME280;68929;42.666;23.324;2023-05-07T12:14:31;94591.25;;;36.86;15.70
79461;BME280;68929;42.666;23.324;2023-05-07T12:16:58;94599.28;;;38.39;15.26
79461;BME280;68929;42.666;23.324;2023-05-07T12:19:28;94594.25;;;38.87;14.12
79461;BME280;68929;42.666;23.324;2023-05-07T12:21:53;94585.78;;;38.16;14.22
79461;BME280;68929;42.666;23.324;2023-05-07T12:24:19;94584.91;;;36.79;15.66
79461;BME280;68929;42.666;23.324;2023-05-07T12:26:44;94568.34;;;37.84;15.72
79461;BME280;68929;42.666;23.324;2023-05-07T12:29:10;94576.72;;;37.37;15.05
79461;BME280;68929;42.666;23.324;2023-05-07T12:31:35;94560.06;;;35.65;16.19
79461;BME280;68929;42.666;23.324;2023-05-07T12:34:02;94557.50;;;35.50;16.18
79461;BME280;68929;42.666;23.324;2023-05-07T12:36:39;94561.78;;;34.72;16.52
79461;BME280;68929;42.666;23.324;2023-05-07T12:39:06;94553.97;;;34.74;16.34
79461;BME280;68929;42.666;23.324;2023-05-07T12:41:36;94566.41;;;33.84;16.92
79461;BME280;68929;42.666;23.324;2023-05-07T12:44:04;94569.41;;;33.41;16.96
79461;BME280;68929;42.666;23.324;2023-05-07T12:46:30;94560.56;;;33.86;17.47
79461;BME280;68929;42.666;23.324;2023-05-07T12:48:55;94535.13;;;34.27;16.78
79461;BME280;68929;42.666;23.324;2023-05-07T12:51:20;94557.28;;;34.38;16.14
79461;BME280;68929;42.666;23.324;2023-05-07T12:53:46;94543.22;;;33.25;18.01
79461;BME280;68929;42.666;23.324;2023-05-07T12:56:11;94534.97;;;33.05;16.96